createdAt,value
2022-12-31T00:01:49.840Z,4.22
2022-12-31T00:04:17.732Z,4.03
2022-12-31T00:06:48.201Z,3.67
2022-12-31T00:09:16.024Z,3.67
2022-12-31T00:11:43.985Z,4.40
2022-12-31T00:14:13.324Z,3.80
2022-12-31T00:16:42.933Z,3.72
2022-12-31T00:19:12.629Z,4.30
2022-12-31T00:21:41.326Z,4.00
2022-12-31T00:24:12.512Z,3.88
2022-12-31T00:26:40.481Z,4.47
2022-12-31T00:29:08.378Z,4.22
2022-12-31T00:31:38.963Z,4.63
2022-12-31T00:34:07.859Z,3.97
2022-12-31T00:36:37.625Z,4.10
2022-12-31T00:39:09.145Z,4.47
2022-12-31T00:41:38.442Z,3.95
2022-12-31T00:44:06.807Z,4.07
2022-12-31T00:49:02.285Z,4.72
2022-12-31T00:51:31.197Z,3.60
2022-12-31T00:53:59.471Z,4.05
2022-12-31T00:56:29.489Z,4.45
2022-12-31T00:59:00.886Z,4.10
2022-12-31T01:01:30.895Z,3.15
2022-12-31T01:04:01.375Z,4.68
2022-12-31T01:06:29.267Z,4.63
2022-12-31T01:08:57.383Z,4.13
2022-12-31T01:11:29.442Z,4.03
2022-12-31T01:14:00.764Z,3.75
2022-12-31T01:16:32.172Z,3.85
2022-12-31T01:19:01.637Z,4.30
2022-12-31T01:21:30.102Z,4.70
2022-12-31T01:23:59.368Z,4.70
2022-12-31T01:26:28.238Z,4.28
2022-12-31T01:28:56.041Z,4.63
2022-12-31T01:31:26.278Z,4.32
2022-12-31T01:33:57.879Z,5.30
2022-12-31T01:36:27.807Z,4.43
2022-12-31T01:38:57.348Z,3.85
2022-12-31T01:41:27.671Z,4.00
2022-12-31T01:43:58.749Z,4.13
2022-12-31T01:46:40.333Z,4.15
2022-12-31T01:49:13.834Z,4.13
2022-12-31T01:51:44.554Z,4.53
2022-12-31T01:54:15.148Z,4.53
2022-12-31T01:56:44.199Z,3.58
2022-12-31T01:59:15.339Z,3.88
2022-12-31T02:01:46.763Z,4.07
2022-12-31T02:04:16.659Z,3.30
2022-12-31T02:06:49.080Z,3.55
2022-12-31T02:09:17.280Z,3.63
2022-12-31T02:11:45.139Z,3.50
2022-12-31T02:14:16.984Z,3.80
2022-12-31T02:16:54.339Z,3.22
2022-12-31T02:19:46.741Z,3.85
2022-12-31T02:22:28.143Z,3.75
2022-12-31T02:25:36.905Z,3.25
2022-12-31T02:28:23.297Z,3.53
2022-12-31T02:31:01.348Z,3.70
2022-12-31T02:33:34.038Z,3.85
2022-12-31T02:36:06.196Z,3.28
2022-12-31T02:38:38.294Z,3.67
2022-12-31T02:41:06.417Z,3.47
2022-12-31T02:43:34.312Z,4.10
2022-12-31T02:46:12.123Z,3.75
2022-12-31T02:48:47.038Z,4.03
2022-12-31T02:51:28.012Z,4.05
2022-12-31T02:54:15.518Z,4.05
2022-12-31T02:56:49.839Z,3.95
2022-12-31T02:59:44.602Z,3.28
2022-12-31T03:02:19.632Z,3.65
2022-12-31T03:04:52.015Z,3.42
2022-12-31T03:07:23.020Z,3.30
2022-12-31T03:09:51.179Z,4.45
2022-12-31T03:12:39.202Z,3.42
2022-12-31T03:15:20.177Z,3.47
2022-12-31T03:18:08.504Z,3.22
2022-12-31T03:20:56.093Z,2.63
2022-12-31T03:23:28.610Z,3.13
2022-12-31T03:25:57.059Z,3.38
2022-12-31T03:28:26.894Z,3.40
2022-12-31T03:30:57.572Z,3.28
2022-12-31T03:33:31.055Z,2.95
2022-12-31T03:35:58.999Z,3.50
2022-12-31T03:38:26.981Z,3.53
2022-12-31T03:40:55.172Z,3.40
2022-12-31T03:43:23.355Z,3.40
2022-12-31T03:45:52.595Z,3.40
2022-12-31T03:48:21.613Z,2.90
2022-12-31T03:50:51.584Z,3.00
2022-12-31T03:53:19.635Z,3.13
2022-12-31T03:55:52.048Z,3.20
2022-12-31T03:58:19.868Z,3.08
2022-12-31T04:00:47.759Z,2.70
2022-12-31T04:03:15.662Z,2.38
2022-12-31T04:05:43.529Z,2.92
2022-12-31T04:08:12.872Z,2.25
2022-12-31T04:10:40.786Z,3.38
2022-12-31T04:13:08.625Z,3.05
2022-12-31T04:15:36.524Z,2.90
2022-12-31T04:18:04.674Z,2.80
2022-12-31T04:20:32.500Z,3.05
2022-12-31T04:23:00.415Z,3.00
2022-12-31T04:25:29.678Z,3.13
2022-12-31T04:27:57.497Z,2.92
2022-12-31T04:30:25.401Z,3.13
2022-12-31T04:32:53.307Z,3.33
2022-12-31T04:35:21.114Z,3.03
2022-12-31T04:37:49.007Z,3.22
2022-12-31T04:40:16.975Z,3.10
2022-12-31T04:42:46.303Z,3.20
2022-12-31T04:45:14.270Z,2.60
2022-12-31T04:47:42.108Z,2.83
2022-12-31T04:50:10.235Z,3.08
2022-12-31T04:52:42.760Z,3.20
2022-12-31T04:55:11.668Z,3.00
2022-12-31T04:57:39.717Z,3.78
2022-12-31T05:00:10.445Z,2.80
2022-12-31T05:02:38.421Z,2.78
2022-12-31T05:05:07.223Z,3.30
2022-12-31T05:07:35.028Z,3.00
2022-12-31T05:10:02.913Z,3.45
2022-12-31T05:12:30.910Z,2.88
2022-12-31T05:14:58.769Z,2.78
2022-12-31T05:17:28.011Z,2.95
2022-12-31T05:19:56.001Z,2.47
2022-12-31T05:22:32.486Z,2.83
2022-12-31T05:25:01.306Z,2.38
2022-12-31T05:27:31.241Z,1.88
2022-12-31T05:29:59.394Z,2.53
2022-12-31T05:32:28.707Z,2.47
2022-12-31T05:34:57.128Z,2.40
2022-12-31T05:37:25.096Z,2.38
2022-12-31T05:39:52.954Z,2.30
2022-12-31T05:42:20.919Z,2.20
2022-12-31T05:44:48.913Z,2.05
2022-12-31T05:47:17.023Z,2.03
2022-12-31T05:49:46.415Z,1.98
2022-12-31T05:52:14.911Z,2.00
2022-12-31T05:54:43.076Z,1.73
2022-12-31T05:57:11.267Z,2.25
2022-12-31T05:59:39.166Z,2.55
2022-12-31T06:02:06.980Z,3.08
2022-12-31T06:04:35.065Z,2.00
2022-12-31T06:07:04.314Z,1.95
2022-12-31T06:09:32.203Z,1.63
2022-12-31T06:12:00.221Z,1.80
2022-12-31T06:14:28.060Z,1.98
2022-12-31T06:16:55.935Z,1.77
2022-12-31T06:19:24.045Z,1.50
2022-12-31T06:21:51.947Z,1.92
2022-12-31T06:24:21.345Z,1.70
2022-12-31T06:26:49.299Z,1.83
2022-12-31T06:29:17.544Z,1.88
2022-12-31T06:31:45.574Z,1.73
2022-12-31T06:34:13.633Z,2.00
2022-12-31T06:36:41.506Z,1.83
2022-12-31T06:39:09.361Z,1.48
2022-12-31T06:41:38.628Z,1.52
2022-12-31T06:44:07.224Z,1.50
2022-12-31T06:46:35.165Z,1.10
2022-12-31T06:49:03.309Z,1.77
2022-12-31T06:51:31.165Z,1.55
2022-12-31T06:53:58.986Z,1.40
2022-12-31T06:56:34.363Z,1.40
2022-12-31T06:59:05.455Z,2.33
2022-12-31T07:01:51.447Z,1.60
2022-12-31T07:04:44.328Z,1.40
2022-12-31T07:07:20.628Z,1.48
2022-12-31T07:09:56.956Z,1.65
2022-12-31T07:12:34.747Z,1.65
2022-12-31T07:15:07.880Z,1.50
2022-12-31T07:17:43.483Z,1.77
2022-12-31T07:20:14.295Z,1.80
2022-12-31T07:22:42.677Z,1.30
2022-12-31T07:25:15.470Z,1.30
2022-12-31T07:27:56.969Z,1.05
2022-12-31T07:30:36.520Z,1.15
2022-12-31T07:33:30.999Z,1.30
2022-12-31T07:36:13.037Z,1.80
2022-12-31T07:38:51.419Z,1.27
2022-12-31T07:41:27.385Z,1.25
2022-12-31T07:44:04.008Z,1.33
2022-12-31T07:46:41.589Z,1.08
2022-12-31T07:49:13.487Z,1.30
2022-12-31T07:51:42.420Z,1.40
2022-12-31T07:54:14.147Z,1.65
2022-12-31T07:56:43.018Z,1.10
2022-12-31T07:59:24.630Z,1.20
2022-12-31T08:02:02.411Z,1.58
2022-12-31T08:04:36.856Z,1.30
2022-12-31T08:07:13.575Z,1.50
2022-12-31T08:09:47.938Z,1.67
2022-12-31T08:12:16.206Z,1.30
2022-12-31T08:14:46.586Z,1.30
2022-12-31T08:17:18.572Z,1.52
2022-12-31T08:19:47.161Z,1.20
2022-12-31T08:22:39.839Z,1.58
2022-12-31T08:25:20.910Z,1.20
2022-12-31T08:28:17.949Z,1.30
2022-12-31T08:30:56.043Z,1.38
2022-12-31T08:33:33.092Z,1.77
2022-12-31T08:36:12.781Z,1.55
2022-12-31T08:38:48.844Z,1.48
2022-12-31T08:41:22.739Z,1.02
2022-12-31T08:44:00.048Z,1.13
2022-12-31T08:46:32.631Z,1.45
2022-12-31T08:49:02.671Z,1.63
2022-12-31T08:51:30.905Z,1.30
2022-12-31T08:53:59.308Z,1.23
2022-12-31T08:56:33.052Z,1.10
2022-12-31T08:59:14.527Z,1.40
2022-12-31T09:01:54.832Z,1.48
2022-12-31T09:04:31.314Z,1.40
2022-12-31T09:07:01.644Z,1.65
2022-12-31T09:09:40.568Z,1.35
2022-12-31T09:12:15.515Z,0.95
2022-12-31T09:14:47.088Z,2.00
2022-12-31T09:17:41.660Z,1.13
2022-12-31T09:20:16.944Z,1.48
2022-12-31T09:22:45.219Z,1.33
2022-12-31T09:25:18.133Z,0.90
2022-12-31T09:27:53.679Z,1.83
2022-12-31T09:30:21.723Z,1.60
2022-12-31T09:33:01.114Z,1.65
2022-12-31T09:35:38.042Z,1.52
2022-12-31T09:38:13.178Z,2.05
2022-12-31T09:40:55.774Z,1.77
2022-12-31T09:44:02.221Z,1.20
2022-12-31T09:47:11.531Z,1.80
2022-12-31T09:50:13.869Z,1.70
2022-12-31T09:52:59.583Z,1.55
2022-12-31T09:55:38.463Z,1.55
2022-12-31T09:58:23.698Z,1.38
2022-12-31T10:00:54.863Z,1.83
2022-12-31T10:03:44.768Z,1.50
2022-12-31T10:06:24.386Z,1.60
2022-12-31T10:09:24.233Z,1.65
2022-12-31T10:12:04.779Z,1.73
2022-12-31T10:14:48.509Z,1.80
2022-12-31T10:17:30.122Z,1.00
2022-12-31T10:20:17.906Z,2.42
2022-12-31T10:23:08.857Z,1.73
2022-12-31T10:25:58.996Z,2.42
2022-12-31T10:28:32.272Z,1.80
2022-12-31T10:31:14.352Z,1.88
2022-12-31T10:33:45.929Z,1.85
2022-12-31T10:36:21.578Z,1.58
2022-12-31T10:39:06.181Z,2.88
2022-12-31T10:42:06.120Z,2.47
2022-12-31T10:45:03.985Z,1.77
2022-12-31T10:48:05.296Z,1.90
2022-12-31T10:51:11.561Z,2.20
2022-12-31T10:54:12.314Z,1.90
2022-12-31T10:57:07.206Z,2.30
2022-12-31T11:00:12.021Z,1.85
2022-12-31T11:03:25.185Z,1.75
2022-12-31T11:06:38.404Z,2.22
2022-12-31T11:09:31.294Z,2.47
2022-12-31T11:12:13.664Z,1.92
2022-12-31T11:15:19.292Z,1.92
2022-12-31T11:17:59.766Z,2.10
2022-12-31T11:20:53.235Z,1.70
2022-12-31T11:23:36.510Z,2.28
2022-12-31T11:26:16.777Z,2.05
2022-12-31T11:29:10.156Z,2.30
2022-12-31T11:31:59.242Z,2.45
2022-12-31T11:34:48.930Z,2.60
2022-12-31T11:37:30.942Z,2.25
2022-12-31T11:40:07.582Z,2.00
2022-12-31T11:42:45.206Z,2.33
2022-12-31T11:45:27.820Z,2.28
2022-12-31T11:48:29.591Z,2.13
2022-12-31T11:51:04.568Z,2.75
2022-12-31T11:53:48.533Z,2.08
2022-12-31T11:56:19.952Z,1.90
2022-12-31T11:58:50.487Z,2.05
2022-12-31T12:01:26.283Z,2.92
2022-12-31T12:03:54.473Z,2.78
2022-12-31T12:06:28.332Z,2.42
2022-12-31T12:09:00.645Z,2.05
2022-12-31T12:11:31.279Z,2.38
2022-12-31T12:13:59.321Z,2.60
2022-12-31T12:16:29.638Z,2.38
2022-12-31T12:19:05.906Z,2.15
2022-12-31T12:21:34.949Z,2.10
2022-12-31T12:24:05.563Z,1.90
2022-12-31T12:26:36.928Z,1.70
2022-12-31T12:29:11.680Z,2.35
2022-12-31T12:31:41.010Z,2.40
2022-12-31T12:34:23.975Z,2.45
2022-12-31T12:36:51.972Z,2.28
2022-12-31T12:39:22.778Z,2.35
2022-12-31T12:42:01.692Z,1.88
2022-12-31T12:44:29.549Z,2.13
2022-12-31T12:46:59.987Z,2.30
2022-12-31T12:49:30.486Z,2.63
2022-12-31T12:52:10.828Z,2.30
2022-12-31T12:54:57.276Z,2.40
2022-12-31T12:57:35.375Z,2.33
2022-12-31T13:00:15.903Z,2.15
2022-12-31T13:03:21.650Z,2.10
2022-12-31T13:05:57.011Z,2.50
2022-12-31T13:08:38.158Z,2.65
2022-12-31T13:11:27.582Z,2.05
2022-12-31T13:14:06.220Z,2.50
2022-12-31T13:16:42.323Z,3.03
2022-12-31T13:19:20.047Z,2.28
2022-12-31T13:21:57.376Z,2.55
2022-12-31T13:24:35.860Z,2.78
2022-12-31T13:27:13.732Z,2.40
2022-12-31T13:29:43.661Z,2.33
2022-12-31T13:32:18.463Z,2.35
2022-12-31T13:34:50.895Z,1.90
2022-12-31T13:37:26.907Z,2.35
2022-12-31T13:40:00.960Z,2.40
2022-12-31T13:42:37.051Z,2.25
2022-12-31T13:45:11.226Z,2.80
2022-12-31T13:47:43.367Z,2.55
2022-12-31T13:50:20.950Z,2.25
2022-12-31T13:52:55.087Z,2.20
2022-12-31T13:55:27.755Z,2.67
2022-12-31T13:58:02.539Z,1.80
2022-12-31T14:00:36.226Z,2.78
2022-12-31T14:03:14.320Z,2.72
2022-12-31T14:05:49.995Z,2.10
2022-12-31T14:08:18.080Z,1.50
2022-12-31T14:10:58.496Z,2.33
2022-12-31T14:13:39.811Z,2.40
2022-12-31T14:16:20.449Z,2.30
2022-12-31T14:18:59.013Z,2.47
2022-12-31T14:21:34.616Z,2.38
2022-12-31T14:24:12.990Z,2.53
2022-12-31T14:26:45.164Z,2.28
2022-12-31T14:29:25.646Z,2.90
2022-12-31T14:32:17.682Z,2.40
2022-12-31T14:34:57.457Z,2.80
2022-12-31T14:37:34.295Z,2.78
2022-12-31T14:40:16.955Z,2.20
2022-12-31T14:42:54.095Z,2.33
2022-12-31T14:45:36.589Z,2.70
2022-12-31T14:48:21.944Z,2.20
2022-12-31T14:50:50.654Z,2.33
2022-12-31T14:53:23.867Z,2.30
2022-12-31T14:55:59.654Z,2.10
2022-12-31T14:58:33.318Z,2.30
2022-12-31T15:01:03.482Z,2.60
2022-12-31T15:03:43.005Z,3.17
2022-12-31T15:06:38.402Z,2.05
2022-12-31T15:09:18.953Z,2.50
2022-12-31T15:12:07.993Z,2.10
2022-12-31T15:14:54.564Z,2.30
2022-12-31T15:17:32.043Z,2.20
2022-12-31T15:20:32.740Z,1.85
2022-12-31T15:23:00.972Z,2.00
2022-12-31T15:25:39.978Z,2.97
2022-12-31T15:28:24.289Z,3.65
2022-12-31T15:30:53.438Z,2.45
2022-12-31T15:33:29.087Z,2.80
2022-12-31T15:35:58.342Z,2.00
2022-12-31T15:38:38.163Z,1.67
2022-12-31T15:41:28.393Z,2.05
2022-12-31T15:44:01.554Z,1.98
2022-12-31T15:46:33.328Z,2.00
2022-12-31T15:49:07.855Z,2.60
2022-12-31T15:51:45.939Z,2.40
2022-12-31T15:54:24.283Z,2.80
2022-12-31T15:56:55.319Z,1.92
2022-12-31T15:59:26.256Z,2.67
2022-12-31T16:01:57.363Z,2.92
2022-12-31T16:04:27.822Z,2.40
2022-12-31T16:06:59.442Z,2.60
2022-12-31T16:09:30.119Z,2.35
2022-12-31T16:12:00.595Z,2.42
2022-12-31T16:14:35.675Z,2.13
2022-12-31T16:17:04.027Z,2.05
2022-12-31T16:19:35.835Z,3.17
2022-12-31T16:22:09.675Z,3.22
2022-12-31T16:24:55.176Z,2.83
2022-12-31T16:27:29.382Z,3.63
2022-12-31T16:30:00.939Z,2.08
2022-12-31T16:32:35.785Z,2.60
2022-12-31T16:35:07.017Z,3.10
2022-12-31T16:37:38.540Z,2.08
2022-12-31T16:40:19.492Z,3.72
2022-12-31T16:42:49.111Z,2.85
2022-12-31T16:45:30.015Z,2.92
2022-12-31T16:47:59.644Z,2.70
2022-12-31T16:50:27.598Z,3.03
2022-12-31T16:53:00.409Z,2.28
2022-12-31T16:55:31.344Z,3.42
2022-12-31T16:58:04.206Z,2.97
2022-12-31T17:00:33.691Z,2.65
2022-12-31T17:03:09.103Z,2.28
2022-12-31T17:05:56.981Z,3.47
2022-12-31T17:08:27.029Z,2.58
2022-12-31T17:10:56.486Z,2.85
2022-12-31T17:13:35.232Z,2.80
2022-12-31T17:16:03.522Z,2.67
2022-12-31T17:18:36.971Z,3.15
2022-12-31T17:21:09.693Z,3.17
2022-12-31T17:23:40.659Z,2.60
2022-12-31T17:26:11.961Z,2.33
2022-12-31T17:28:45.886Z,2.88
2022-12-31T17:31:34.750Z,2.72
2022-12-31T17:34:19.164Z,2.25
2022-12-31T17:36:57.196Z,2.35
2022-12-31T17:39:26.550Z,3.40
2022-12-31T17:41:58.142Z,3.05
2022-12-31T17:44:29.691Z,3.97
2022-12-31T17:46:57.593Z,2.75
2022-12-31T17:49:31.350Z,2.00
2022-12-31T17:51:59.200Z,3.03
2022-12-31T17:54:27.035Z,3.90
2022-12-31T17:56:55.195Z,2.55
2022-12-31T17:59:29.631Z,2.80
2022-12-31T18:02:01.244Z,2.08
2022-12-31T18:04:29.238Z,3.13
2022-12-31T18:06:57.122Z,3.45
2022-12-31T18:09:25.114Z,2.75
2022-12-31T18:11:56.830Z,2.55
2022-12-31T18:14:28.000Z,2.75
2022-12-31T18:16:55.844Z,3.03
2022-12-31T18:19:54.137Z,3.30
2022-12-31T18:22:16.854Z,2.45
2022-12-31T18:24:45.423Z,3.33
2022-12-31T18:27:17.781Z,2.33
2022-12-31T18:29:46.438Z,3.28
2022-12-31T18:32:21.177Z,2.97
2022-12-31T18:34:51.106Z,2.80
2022-12-31T18:37:22.245Z,2.85
2022-12-31T18:39:50.774Z,2.90
2022-12-31T18:42:19.793Z,2.25
2022-12-31T18:44:48.199Z,2.92
2022-12-31T18:47:18.441Z,2.55
2022-12-31T18:49:48.614Z,2.15
2022-12-31T18:52:19.628Z,3.40
2022-12-31T18:54:47.820Z,3.03
2022-12-31T18:57:16.655Z,2.90
2022-12-31T18:59:44.619Z,2.45
2022-12-31T19:02:16.675Z,3.60
2022-12-31T19:04:44.951Z,2.83
2022-12-31T19:07:12.704Z,2.60
2022-12-31T19:09:46.446Z,2.95
2022-12-31T19:12:16.088Z,3.03
2022-12-31T19:14:44.018Z,2.78
2022-12-31T19:17:11.828Z,3.70
2022-12-31T19:19:39.740Z,3.17
2022-12-31T19:22:07.566Z,2.67
2022-12-31T19:24:35.388Z,2.72
2022-12-31T19:27:04.897Z,2.70
2022-12-31T19:29:32.736Z,3.00
2022-12-31T19:32:02.207Z,2.97
2022-12-31T19:34:30.347Z,3.03
2022-12-31T19:36:58.205Z,3.35
2022-12-31T19:39:26.006Z,3.05
2022-12-31T19:41:58.811Z,3.40
2022-12-31T19:44:28.512Z,2.88
2022-12-31T19:46:56.490Z,3.33
2022-12-31T19:49:24.581Z,3.60
2022-12-31T19:51:52.460Z,2.58
2022-12-31T19:54:20.985Z,3.72
2022-12-31T19:56:48.783Z,3.45
2022-12-31T19:59:16.583Z,4.00
2022-12-31T20:01:46.020Z,3.40
2022-12-31T20:04:14.345Z,3.75
2022-12-31T20:06:42.347Z,3.03
2022-12-31T20:09:10.356Z,3.13
2022-12-31T20:11:38.179Z,3.47
2022-12-31T20:14:06.029Z,3.13
2022-12-31T20:16:34.190Z,3.60
2022-12-31T20:19:03.564Z,3.20
2022-12-31T20:21:31.409Z,3.15
2022-12-31T20:23:59.369Z,3.10
2022-12-31T20:26:27.314Z,3.17
2022-12-31T20:28:55.225Z,3.47
2022-12-31T20:31:25.549Z,2.65
2022-12-31T20:33:54.750Z,2.88
2022-12-31T20:36:25.811Z,2.55
2022-12-31T20:38:53.766Z,2.80
2022-12-31T20:41:23.381Z,2.65
2022-12-31T20:43:51.947Z,2.85
2022-12-31T20:46:22.162Z,3.13
2022-12-31T20:48:52.041Z,2.83
2022-12-31T20:51:21.362Z,2.55
2022-12-31T20:53:52.925Z,4.03
2022-12-31T20:56:20.945Z,3.15
2022-12-31T20:58:49.182Z,2.97
2022-12-31T21:01:18.154Z,3.10
2022-12-31T21:04:05.418Z,3.05
2022-12-31T21:06:35.122Z,3.25
2022-12-31T21:09:06.929Z,2.65
2022-12-31T21:11:52.693Z,3.17
2022-12-31T21:14:21.164Z,2.70
2022-12-31T21:16:49.007Z,2.53
2022-12-31T21:19:16.901Z,2.72
2022-12-31T21:21:44.852Z,2.38
2022-12-31T21:24:17.488Z,2.10
2022-12-31T21:26:48.244Z,2.58
2022-12-31T21:29:16.124Z,2.92
2022-12-31T21:31:44.070Z,1.58
2022-12-31T21:34:12.078Z,2.40
2022-12-31T21:36:39.922Z,3.10
2022-12-31T21:39:07.715Z,2.42
2022-12-31T21:41:52.252Z,2.33
2022-12-31T21:44:21.407Z,2.53
2022-12-31T21:47:25.122Z,1.95
2022-12-31T21:49:37.440Z,1.60
2022-12-31T21:52:23.173Z,2.28
2022-12-31T21:55:08.399Z,2.80
2022-12-31T21:58:15.180Z,2.92
2022-12-31T22:00:43.838Z,2.17
2022-12-31T22:03:26.975Z,1.98
2022-12-31T22:05:56.535Z,2.50
2022-12-31T22:08:24.476Z,5.18
2022-12-31T22:10:55.189Z,3.33
2022-12-31T22:13:24.751Z,2.22
2022-12-31T22:16:01.829Z,4.13
2022-12-31T22:18:34.495Z,2.97
2022-12-31T22:21:04.149Z,2.97
2022-12-31T22:23:32.795Z,1.88
2022-12-31T22:26:00.806Z,2.83
2022-12-31T22:28:39.248Z,2.22
2022-12-31T22:31:08.046Z,2.90
2022-12-31T22:33:36.267Z,2.78
2022-12-31T22:36:06.794Z,2.63
2022-12-31T22:38:35.446Z,2.05
2022-12-31T22:41:07.727Z,3.53
2022-12-31T22:43:39.443Z,2.70
2022-12-31T22:46:12.800Z,2.83
2022-12-31T22:48:41.746Z,2.80
2022-12-31T22:51:11.285Z,3.42
2022-12-31T22:53:41.290Z,5.18
2022-12-31T22:56:10.234Z,16.23
2022-12-31T22:58:39.568Z,7.78
2022-12-31T23:01:08.655Z,16.05
2022-12-31T23:03:36.759Z,12.10
2022-12-31T23:06:04.701Z,22.73
2022-12-31T23:08:32.578Z,18.83
2022-12-31T23:10:59.887Z,22.02
2022-12-31T23:13:50.163Z,21.45
2022-12-31T23:16:38.574Z,30.00
2022-12-31T23:19:24.513Z,34.95
2022-12-31T23:22:10.510Z,36.05
2022-12-31T23:24:38.620Z,31.05
2022-12-31T23:27:07.156Z,31.30
2022-12-31T23:29:39.020Z,30.23
2022-12-31T23:32:11.622Z,28.67
2022-12-31T23:34:39.542Z,29.88
2022-12-31T23:37:07.385Z,27.38
2022-12-31T23:39:35.391Z,28.30
2022-12-31T23:42:03.274Z,22.40
2022-12-31T23:44:31.179Z,24.40
2022-12-31T23:46:59.227Z,20.30
2022-12-31T23:49:28.623Z,20.17
2022-12-31T23:51:56.512Z,17.35
2022-12-31T23:54:24.457Z,14.95
2022-12-31T23:56:52.372Z,15.68
2022-12-31T23:59:20.438Z,12.90
